Time;durP1;ratioP1;P1;durP2;ratioP2;P2;SDS_P1;SDS_P2;PMS_P1;PMS_P2;Temp;Humidity;BMP_temperature;BMP_pressure;BME280_temperature;BME280_humidity;BME280_pressure;Samples;Min_cycle;Max_cycle;Signal;HPM_P1;HPM_P2
2023/10/15 00:01:49;;;;;;;0.52;0.52;;;;;;;25.18;31.87;100500.84;7391988;19;20338;-79
2023/10/15 00:04:16;;;;;;;0.47;0.47;;;;;;;25.32;32.23;100493.66;7392343;19;20010;-79
2023/10/15 00:06:42;;;;;;;0.55;0.55;;;;;;;25.40;32.14;100494.47;7393209;19;20092;-79
2023/10/15 00:09:09;;;;;;;0.75;0.75;;;;;;;25.60;31.66;100489.25;7393962;19;20018;-78
2023/10/15 00:11:36;;;;;;;1.23;0.63;;;;;;;25.68;31.75;100501.47;7391131;19;20011;-79
2023/10/15 00:14:05;;;;;;;3.40;0.85;;;;;;;25.81;31.64;100498.44;7395001;19;20021;-79
2023/10/15 00:16:32;;;;;;;0.20;0.20;;;;;;;25.91;32.02;100507.97;7391897;19;20010;-79
2023/10/15 00:19:09;;;;;;;0.85;0.85;;;;;;;25.56;31.80;100496.09;7394873;19;20443;-79
2023/10/15 00:21:36;;;;;;;0.70;0.70;;;;;;;24.10;33.68;100499.03;7393168;19;20030;-79
2023/10/15 00:24:05;;;;;;;0.85;0.60;;;;;;;23.49;34.05;100496.78;7394666;19;20463;-78
2023/10/15 00:26:31;;;;;;;0.32;0.32;;;;;;;23.66;34.68;100497.97;7394139;19;20464;-78
2023/10/15 00:28:57;;;;;;;2.13;1.05;;;;;;;23.75;33.97;100499.56;7393664;19;20022;-79
2023/10/15 00:31:24;;;;;;;0.45;0.45;;;;;;;22.47;35.67;100499.25;7392507;19;20023;-79
2023/10/15 00:33:50;;;;;;;1.45;0.75;;;;;;;21.26;37.35;100501.06;7395678;19;20046;-79
2023/10/15 00:36:16;;;;;;;1.48;1.15;;;;;;;20.60;38.04;100511.81;7395125;19;20044;-79
2023/10/15 00:38:44;;;;;;;1.40;1.15;;;;;;;20.74;37.80;100516.31;7398066;19;19998;-79
2023/10/15 00:41:13;;;;;;;0.65;0.65;;;;;;;21.91;36.96;100515.66;7400762;19;20013;-79
2023/10/15 00:43:55;;;;;;;0.57;0.57;;;;;;;22.94;35.57;100524.25;7403910;19;20021;-78
2023/10/15 00:46:23;;;;;;;0.35;0.35;;;;;;;21.83;36.74;100528.91;7402569;19;20422;-78
2023/10/15 00:48:49;;;;;;;0.45;0.45;;;;;;;23.05;35.02;100524.81;7403353;19;20006;-78
2023/10/15 00:51:20;;;;;;;2.58;0.65;;;;;;;23.16;34.83;100524.59;7398801;19;20006;-78
2023/10/15 00:53:58;;;;;;;3.50;1.35;;;;;;;23.27;34.28;100523.59;7392433;19;20034;-78
2023/10/15 00:56:33;;;;;;;1.48;0.60;;;;;;;25.10;32.59;100534.22;7390167;19;20552;-78
2023/10/15 00:59:16;;;;;;;0.40;0.30;;;;;;;25.68;31.38;100530.75;7391812;19;20033;-78
2023/10/15 01:02:02;;;;;;;0.47;0.47;;;;;;;25.76;31.56;100528.69;7393244;19;20070;-78
2023/10/15 01:04:35;;;;;;;0.50;0.50;;;;;;;24.26;32.85;100531.22;7392771;19;20018;-78
2023/10/15 01:07:28;;;;;;;0.32;0.32;;;;;;;24.72;32.58;100528.25;7394104;19;20019;-78
2023/10/15 01:09:54;;;;;;;1.67;1.58;;;;;;;25.22;32.14;100529.75;7391366;19;20015;-79
2023/10/15 01:12:28;;;;;;;0.47;0.47;;;;;;;25.43;32.11;100527.59;7391048;19;20024;-79
2023/10/15 01:14:57;;;;;;;0.90;0.75;;;;;;;26.16;31.61;100535.47;7393214;19;20002;-79
2023/10/15 01:17:26;;;;;;;0.70;0.70;;;;;;;27.03;30.38;100532.25;7396752;19;20485;-79
2023/10/15 01:19:52;;;;;;;0.57;0.57;;;;;;;27.28;29.76;100536.03;7400032;19;20025;-79
2023/10/15 01:22:21;;;;;;;0.40;0.40;;;;;;;27.32;29.76;100532.78;7395657;19;20039;-79
2023/10/15 01:25:09;;;;;;;0.38;0.38;;;;;;;27.17;30.10;100533.59;7392742;19;20035;-79
2023/10/15 01:27:36;;;;;;;0.40;0.40;;;;;;;27.16;29.86;100537.03;7393629;19;20032;-79
2023/10/15 01:30:03;;;;;;;1.50;1.02;;;;;;;27.31;29.76;100539.84;7394902;19;20025;-78
2023/10/15 01:32:38;;;;;;;0.50;0.50;;;;;;;27.35;29.35;100548.78;7394613;19;20014;-79
2023/10/15 01:35:10;;;;;;;0.68;0.63;;;;;;;27.47;29.55;100549.91;7391555;19;20353;-79
2023/10/15 01:37:37;;;;;;;0.95;0.95;;;;;;;27.42;29.31;100559.47;7393544;19;20007;-79
2023/10/15 01:42:40;;;;;;;0.73;0.73;;;;;;;27.30;29.30;100552.63;7393591;19;20002;-79
2023/10/15 01:50:23;;;;;;;1.00;0.73;;;;;;;27.43;29.03;100547.47;7384595;19;20011;-79
2023/10/15 01:52:54;;;;;;;0.30;0.30;;;;;;;27.67;28.83;100552.53;7385202;19;20006;-78
2023/10/15 01:55:21;;;;;;;0.70;0.70;;;;;;;27.85;28.64;100550.53;7385429;19;20373;-78
2023/10/15 01:57:47;;;;;;;0.40;0.40;;;;;;;27.95;28.08;100548.56;7385938;19;20015;-78
2023/10/15 02:02:58;;;;;;;0.40;0.40;;;;;;;25.99;29.70;100554.47;7389794;19;20013;-79
2023/10/15 02:05:40;;;;;;;0.45;0.45;;;;;;;25.91;29.67;100553.66;7389273;19;20007;-78
2023/10/15 02:08:08;;;;;;;4.30;0.85;;;;;;;24.56;30.64;100548.63;7389652;19;20716;-78
2023/10/15 02:10:39;;;;;;;0.43;0.43;;;;;;;24.41;30.91;100548.47;7388846;19;20017;-78
2023/10/15 02:13:08;;;;;;;0.85;0.85;;;;;;;22.85;32.65;100550.25;7393429;19;20061;-78
2023/10/15 02:15:39;;;;;;;0.50;0.50;;;;;;;22.63;32.69;100552.16;7391428;19;20018;-78
2023/10/15 02:18:08;;;;;;;;;;;;;;;22.98;32.38;100547.41;7391837;19;20472;-78
2023/10/15 02:20:44;;;;;;;0.38;0.38;;;;;;;22.59;32.78;100556.63;7389637;19;20462;-78
2023/10/15 02:23:18;;;;;;;1.00;1.00;;;;;;;22.33;33.22;100551.63;7390728;19;20475;-78
2023/10/15 02:25:46;;;;;;;0.20;0.20;;;;;;;22.79;32.79;100558.09;7391062;19;20708;-79
2023/10/15 02:28:20;;;;;;;0.68;0.68;;;;;;;21.34;33.88;100567.16;7390574;19;20014;-79
2023/10/15 02:30:46;;;;;;;2.08;1.75;;;;;;;20.53;34.95;100577.47;7388979;19;20018;-79
2023/10/15 02:33:16;;;;;;;0.30;0.30;;;;;;;19.93;35.43;100567.34;7391777;19;20002;-78
2023/10/15 02:35:47;;;;;;;1.23;0.70;;;;;;;20.85;34.72;100570.00;7387931;19;20070;-78
2023/10/15 02:38:13;;;;;;;0.53;0.50;;;;;;;21.04;34.47;100576.53;7391568;19;20088;-78
2023/10/15 02:41:03;;;;;;;0.55;0.55;;;;;;;20.85;34.63;100580.56;7389012;19;20741;-79
2023/10/15 02:43:31;;;;;;;0.88;0.88;;;;;;;20.52;35.23;100581.59;7388550;19;20006;-78
2023/10/15 02:46:00;;;;;;;2.67;2.47;;;;;;;20.87;35.31;100583.63;7392159;19;20031;-79
2023/10/15 02:48:31;;;;;;;0.43;0.43;;;;;;;21.17;34.72;100586.41;7387999;19;20025;-78
2023/10/15 02:51:01;;;;;;;;;;;;;;;21.18;34.55;100582.31;7391574;19;20070;-78
2023/10/15 02:53:34;;;;;;;0.80;0.80;;;;;;;21.30;34.71;100580.88;7388588;19;19921;-79
2023/10/15 02:56:10;;;;;;;0.30;0.30;;;;;;;20.34;35.51;100583.03;7388325;19;20014;-78
2023/10/15 02:58:37;;;;;;;0.98;0.90;;;;;;;20.44;35.42;100579.88;7389909;19;20028;-79
2023/10/15 03:01:17;;;;;;;9.50;1.13;;;;;;;20.71;35.15;100571.16;7389339;19;20007;-78
2023/10/15 03:03:52;;;;;;;0.35;0.35;;;;;;;20.27;35.52;100582.84;7387652;19;20043;-79
2023/10/15 03:06:28;;;;;;;0.70;0.45;;;;;;;20.48;35.04;100572.66;7388693;19;20038;-78
2023/10/15 03:08:56;;;;;;;0.20;0.20;;;;;;;20.32;34.86;100582.00;7387611;19;20428;-78
2023/10/15 03:11:24;;;;;;;0.40;0.40;;;;;;;20.66;34.31;100580.44;7388332;19;20011;-78
2023/10/15 03:13:54;;;;;;;2.05;0.80;;;;;;;19.99;35.15;100591.47;7397236;19;20018;-79
2023/10/15 03:16:22;;;;;;;0.20;0.20;;;;;;;19.97;35.34;100588.38;7395242;19;20006;-78
2023/10/15 03:18:49;;;;;;;0.45;0.45;;;;;;;20.08;35.28;100590.38;7397515;19;20010;-78
2023/10/15 03:21:24;;;;;;;0.55;0.55;;;;;;;21.03;34.32;100597.63;7395016;19;20041;-78
2023/10/15 03:23:57;;;;;;;0.50;0.50;;;;;;;21.55;33.44;100594.47;7394160;19;20516;-79
2023/10/15 03:26:34;;;;;;;0.22;0.22;;;;;;;21.38;33.81;100598.81;7395835;19;20010;-79
2023/10/15 03:29:13;;;;;;;0.70;0.70;;;;;;;21.16;33.86;100596.25;7396410;19;20014;-79
2023/10/15 03:31:48;;;;;;;1.00;0.40;;;;;;;21.54;33.52;100589.34;7392929;19;20029;-78
2023/10/15 03:34:18;;;;;;;0.30;0.30;;;;;;;21.43;33.27;100595.16;7396561;19;20011;-78
2023/10/15 03:39:16;;;;;;;0.38;0.38;;;;;;;23.57;31.46;100592.25;7395408;19;20019;-78
2023/10/15 03:41:53;;;;;;;0.35;0.35;;;;;;;24.17;30.24;100585.81;7394831;19;20010;-79
2023/10/15 03:44:28;;;;;;;1.55;0.82;;;;;;;22.99;31.72;100591.56;7395054;19;20343;-79
2023/10/15 03:47:06;;;;;;;0.40;0.40;;;;;;;22.33;32.16;100597.03;7393733;19;20088;-78
2023/10/15 03:49:32;;;;;;;0.60;0.60;;;;;;;22.57;31.87;100599.75;7396312;19;20038;-78
2023/10/15 03:51:59;;;;;;;0.65;0.65;;;;;;;21.75;32.42;100607.38;7395953;19;20015;-78
2023/10/15 03:54:25;;;;;;;1.95;0.68;;;;;;;21.24;33.02;100611.34;7395091;19;20095;-78
2023/10/15 03:56:52;;;;;;;0.38;0.38;;;;;;;22.08;32.15;100612.63;7396725;19;20021;-78
2023/10/15 03:59:19;;;;;;;0.73;0.52;;;;;;;22.08;32.09;100612.63;7395290;19;20021;-78
2023/10/15 04:01:48;;;;;;;0.40;0.40;;;;;;;22.37;31.75;100617.34;7396099;19;20006;-79
2023/10/15 04:04:18;;;;;;;0.43;0.43;;;;;;;22.67;31.30;100605.03;7395845;19;20011;-79
2023/10/15 04:07:03;;;;;;;0.85;0.85;;;;;;;22.57;31.39;100616.78;7392659;19;20345;-78
2023/10/15 04:09:33;;;;;;;0.30;0.30;;;;;;;22.56;31.51;100620.94;7392603;19;20010;-78
2023/10/15 04:11:59;;;;;;;0.60;0.60;;;;;;;22.74;31.17;100610.84;7394816;19;20003;-78
2023/10/15 04:14:28;;;;;;;0.60;0.60;;;;;;;22.69;31.70;100622.31;7394474;19;20401;-79
2023/10/15 04:16:57;;;;;;;0.50;0.50;;;;;;;22.61;31.17;100625.78;7394653;19;20006;-78
2023/10/15 04:19:26;;;;;;;0.35;0.35;;;;;;;22.77;30.95;100632.50;7394603;19;20074;-78
2023/10/15 04:21:59;;;;;;;0.22;0.22;;;;;;;22.55;31.21;100633.59;7394147;19;20079;-78
2023/10/15 04:24:41;;;;;;;1.95;1.13;;;;;;;22.40;31.04;100629.69;7390320;19;20348;-78
2023/10/15 04:27:15;;;;;;;0.40;0.40;;;;;;;22.70;31.24;100624.59;7395536;19;20468;-78
2023/10/15 04:29:54;;;;;;;0.50;0.50;;;;;;;22.97;30.50;100619.75;7393631;19;20014;-79
2023/10/15 04:33:07;;;;;;;0.40;0.40;;;;;;;23.23;30.61;100628.31;7392873;19;20669;-78
2023/10/15 04:35:17;;;;;;;0.38;0.38;;;;;;;22.92;30.59;100640.50;7391996;19;20017;-78
2023/10/15 04:37:45;;;;;;;0.30;0.30;;;;;;;22.98;30.88;100638.31;7392936;19;20020;-78
2023/10/15 04:40:12;;;;;;;0.30;0.30;;;;;;;23.01;30.78;100634.41;7393831;19;20468;-78
2023/10/15 04:42:51;;;;;;;8.52;1.63;;;;;;;23.01;30.77;100631.56;7393701;19;20027;-78
2023/10/15 04:45:21;;;;;;;8.77;1.27;;;;;;;22.95;30.56;100623.16;7395275;19;20086;-78
2023/10/15 04:47:51;;;;;;;0.45;0.45;;;;;;;23.01;30.27;100620.19;7392796;19;20021;-78
2023/10/15 04:50:17;;;;;;;0.50;0.50;;;;;;;23.10;29.97;100631.91;7395048;19;20017;-79
2023/10/15 04:52:43;;;;;;;0.20;0.20;;;;;;;23.16;30.33;100638.25;7394850;19;20361;-78
2023/10/15 04:55:13;;;;;;;0.30;0.30;;;;;;;23.00;30.33;100645.00;7394090;19;20011;-78
2023/10/15 04:57:39;;;;;;;0.20;0.20;;;;;;;22.90;30.04;100645.97;7391787;19;20025;-77
2023/10/15 05:00:07;;;;;;;0.57;0.57;;;;;;;22.98;30.12;100644.78;7393022;19;20021;-78
2023/10/15 05:02:36;;;;;;;0.70;0.70;;;;;;;23.38;30.03;100657.00;7394416;19;20116;-78
2023/10/15 05:05:06;;;;;;;0.55;0.55;;;;;;;24.46;29.15;100641.53;7393308;19;20420;-78
2023/10/15 05:07:32;;;;;;;0.40;0.40;;;;;;;24.63;28.89;100644.75;7392850;19;20015;-78
2023/10/15 05:09:59;;;;;;;0.90;0.75;;;;;;;24.60;28.56;100651.59;7393695;19;20018;-78
2023/10/15 05:12:28;;;;;;;1.38;0.82;;;;;;;24.56;28.47;100660.44;7393456;19;20007;-78
2023/10/15 05:14:54;;;;;;;0.63;0.50;;;;;;;24.63;28.59;100662.63;7393718;19;20011;-77
2023/10/15 05:17:20;;;;;;;0.45;0.45;;;;;;;24.86;28.53;100665.72;7393036;19;20010;-78
2023/10/15 05:19:53;;;;;;;0.28;0.28;;;;;;;24.86;27.86;100660.03;7392594;19;20027;-79
2023/10/15 05:22:20;;;;;;;0.25;0.25;;;;;;;24.93;28.22;100669.97;7391663;19;20022;-78
2023/10/15 05:24:47;;;;;;;0.65;0.65;;;;;;;24.95;27.97;100665.22;7391125;19;20313;-79
2023/10/15 05:27:13;;;;;;;0.45;0.45;;;;;;;24.89;28.33;100666.69;7394180;19;20020;-78
2023/10/15 05:29:39;;;;;;;0.30;0.30;;;;;;;24.84;28.29;100671.97;7392552;19;20015;-78
2023/10/15 05:32:09;;;;;;;0.65;0.57;;;;;;;24.88;28.01;100673.72;7392304;19;20940;-78
2023/10/15 05:34:35;;;;;;;0.35;0.35;;;;;;;25.09;27.89;100683.03;7388597;19;20016;-78
2023/10/15 05:37:02;;;;;;;0.43;0.43;;;;;;;25.02;28.08;100684.47;7391919;19;20003;-78
2023/10/15 05:39:28;;;;;;;0.20;0.20;;;;;;;25.17;27.78;100686.69;7392583;19;20055;-78
2023/10/15 05:41:54;;;;;;;0.32;0.32;;;;;;;25.07;27.67;100686.44;7390713;19;20546;-78
2023/10/15 05:44:20;;;;;;;0.40;0.40;;;;;;;24.89;27.85;100690.25;7390849;19;20010;-78
2023/10/15 05:46:46;;;;;;;1.75;0.82;;;;;;;23.57;29.18;100697.47;7390057;19;20006;-78
2023/10/15 05:49:13;;;;;;;0.55;0.55;;;;;;;22.48;30.19;100710.13;7389506;19;20003;-78
2023/10/15 05:51:39;;;;;;;0.10;0.10;;;;;;;23.34;29.44;100699.22;7389317;19;20078;-78
2023/10/15 05:54:06;;;;;;;0.20;0.20;;;;;;;23.14;29.66;100691.25;7390152;19;20018;-78
2023/10/15 05:56:33;;;;;;;0.40;0.40;;;;;;;21.66;30.89;100698.47;7389153;19;19998;-78
2023/10/15 05:58:59;;;;;;;1.00;0.73;;;;;;;21.82;30.61;100686.97;7389538;19;20015;-78
2023/10/15 06:01:26;;;;;;;0.50;0.50;;;;;;;22.49;30.48;100684.00;7391313;19;20078;-78
2023/10/15 06:03:52;;;;;;;0.38;0.38;;;;;;;23.19;29.54;100681.88;7392035;19;20078;-78
2023/10/15 06:06:18;;;;;;;0.40;0.40;;;;;;;23.22;29.39;100675.88;7389129;19;20007;-78
2023/10/15 06:08:44;;;;;;;0.40;0.40;;;;;;;23.17;29.87;100690.19;7390594;19;20695;-78
2023/10/15 06:11:12;;;;;;;0.75;0.75;;;;;;;23.35;29.41;100689.34;7389823;19;20007;-78
2023/10/15 06:13:38;;;;;;;0.57;0.47;;;;;;;23.53;29.37;100688.50;7389457;19;20013;-78
2023/10/15 06:16:04;;;;;;;1.05;1.05;;;;;;;23.84;29.07;100699.03;7391075;19;20011;-78
2023/10/15 06:18:30;;;;;;;0.17;0.17;;;;;;;23.88;28.90;100708.00;7388954;19;20003;-78
2023/10/15 06:20:58;;;;;;;0.25;0.25;;;;;;;24.04;28.77;100703.25;7390270;19;20014;-78
2023/10/15 06:23:24;;;;;;;0.25;0.25;;;;;;;23.88;28.90;100707.22;7390325;19;20030;-78
2023/10/15 06:25:50;;;;;;;17.05;1.10;;;;;;;23.52;29.09;100717.50;7390741;19;20018;-78
2023/10/15 06:28:16;;;;;;;0.30;0.30;;;;;;;23.36;29.24;100707.97;7389196;19;20014;-78
2023/10/15 06:30:44;;;;;;;0.30;0.30;;;;;;;22.59;29.82;100722.09;7389502;19;20026;-78
2023/10/15 06:33:11;;;;;;;0.68;0.68;;;;;;;22.94;29.69;100734.47;7388660;19;20070;-78
2023/10/15 06:35:40;;;;;;;0.40;0.40;;;;;;;23.23;29.74;100727.81;7389111;19;20011;-78
2023/10/15 06:38:06;;;;;;;0.20;0.20;;;;;;;22.80;29.89;100724.38;7388915;19;20014;-78
2023/10/15 06:40:32;;;;;;;7.47;0.73;;;;;;;21.04;31.53;100723.81;7388499;19;20405;-78
2023/10/15 06:43:01;;;;;;;0.45;0.45;;;;;;;21.81;30.77;100715.81;7390285;19;20014;-78
2023/10/15 06:45:28;;;;;;;0.30;0.30;;;;;;;21.75;31.00;100707.38;7390878;19;20375;-78
2023/10/15 06:47:55;;;;;;;0.38;0.38;;;;;;;21.51;31.18;100715.88;7394761;19;20002;-78
2023/10/15 06:50:22;;;;;;;0.40;0.40;;;;;;;21.66;31.35;100715.47;7395474;19;20002;-78
2023/10/15 06:52:48;;;;;;;0.50;0.50;;;;;;;22.06;30.91;100731.56;7397315;19;20070;-78
2023/10/15 06:55:16;;;;;;;0.50;0.50;;;;;;;20.78;32.23;100729.13;7397319;19;20421;-79
2023/10/15 06:57:42;;;;;;;0.30;0.30;;;;;;;20.58;32.36;100731.56;7396432;19;20399;-78
2023/10/15 07:00:21;;;;;;;0.35;0.35;;;;;;;21.98;31.08;100739.13;7395886;19;20009;-78
2023/10/15 07:02:52;;;;;;;0.28;0.28;;;;;;;22.14;30.90;100743.06;7395704;19;20014;-78
2023/10/15 07:05:20;;;;;;;0.43;0.43;;;;;;;22.02;30.88;100742.44;7395509;19;20010;-79
2023/10/15 07:07:47;;;;;;;0.40;0.40;;;;;;;22.28;30.95;100742.63;7396301;19;20342;-79
2023/10/15 07:10:16;;;;;;;1.80;1.10;;;;;;;22.25;30.71;100738.00;7395779;19;20021;-79
2023/10/15 07:12:44;;;;;;;0.10;0.10;;;;;;;22.58;30.18;100743.25;7395598;19;20021;-78
2023/10/15 07:15:13;;;;;;;0.40;0.40;;;;;;;23.25;29.89;100742.22;7399250;19;20026;-78
2023/10/15 07:17:40;;;;;;;0.28;0.28;;;;;;;23.57;29.79;100751.50;7395729;19;20349;-79
2023/10/15 07:20:24;;;;;;;0.73;0.73;;;;;;;23.31;30.07;100762.81;7396224;19;20017;-79
2023/10/15 07:22:51;;;;;;;0.43;0.43;;;;;;;23.91;29.09;100745.94;7396703;19;20378;-78
2023/10/15 07:25:18;;;;;;;0.43;0.43;;;;;;;23.15;29.94;100758.91;7396816;19;20007;-79
2023/10/15 07:27:46;;;;;;;2.17;1.20;;;;;;;22.41;30.54;100765.44;7395025;19;20025;-79
2023/10/15 07:30:13;;;;;;;5.70;1.52;;;;;;;22.23;30.70;100771.84;7395922;19;20011;-78
2023/10/15 07:32:41;;;;;;;0.60;0.60;;;;;;;22.66;30.26;100771.03;7394503;19;20010;-78
2023/10/15 07:35:12;;;;;;;5.47;1.60;;;;;;;22.61;30.73;100770.59;7395623;19;20025;-79
2023/10/15 07:37:43;;;;;;;2.40;0.90;;;;;;;22.61;30.35;100770.59;7396942;19;20043;-78
2023/10/15 07:40:16;;;;;;;0.60;0.60;;;;;;;22.24;30.90;100775.44;7395814;19;20011;-78
2023/10/15 07:42:44;;;;;;;0.90;0.90;;;;;;;21.00;31.95;100784.84;7394145;19;20010;-79
2023/10/15 07:45:11;;;;;;;1.75;0.85;;;;;;;21.76;31.65;100784.72;7399995;19;20014;-78
2023/10/15 07:47:38;;;;;;;1.52;0.80;;;;;;;22.74;30.68;100789.03;7395058;19;20365;-79
2023/10/15 07:50:07;;;;;;;0.75;0.75;;;;;;;21.52;31.99;100796.03;7396183;19;20457;-79
2023/10/15 07:52:34;;;;;;;0.47;0.47;;;;;;;22.78;30.64;100795.16;7392523;19;20010;-79
2023/10/15 07:55:01;;;;;;;0.85;0.85;;;;;;;21.83;31.46;100799.09;7394228;19;20010;-78
2023/10/15 07:57:27;;;;;;;0.20;0.17;;;;;;;21.48;32.17;100806.91;7394195;19;20035;-79
2023/10/15 07:59:58;;;;;;;0.80;0.80;;;;;;;21.25;32.07;100802.69;7396406;19;20021;-78
2023/10/15 08:02:25;;;;;;;0.50;0.50;;;;;;;20.79;32.54;100814.84;7393782;19;20478;-78
2023/10/15 08:04:55;;;;;;;5.90;2.33;;;;;;;20.39;33.03;100819.13;7394770;19;20105;-79
2023/10/15 08:07:22;;;;;;;3.15;0.80;;;;;;;19.64;33.96;100815.41;7394747;19;20017;-78
2023/10/15 08:09:50;;;;;;;0.77;0.77;;;;;;;20.99;32.62;100815.22;7394278;19;20015;-79
2023/10/15 08:12:17;;;;;;;15.18;2.80;;;;;;;20.48;33.14;100824.50;7393766;19;20007;-78
2023/10/15 08:14:47;;;;;;;10.13;3.45;;;;;;;20.58;33.48;100817.25;7393909;19;20167;-78
2023/10/15 08:17:14;;;;;;;1.45;1.15;;;;;;;21.83;32.38;100823.84;7396249;19;20015;-79
2023/10/15 08:19:40;;;;;;;7.93;2.80;;;;;;;21.33;32.59;100829.19;7395833;19;20469;-79
2023/10/15 08:22:07;;;;;;;1.70;1.60;;;;;;;21.06;33.44;100828.06;7396899;19;20006;-79
2023/10/15 08:24:33;;;;;;;1.10;1.10;;;;;;;21.11;33.40;100828.03;7393624;19;20010;-78
2023/10/15 08:27:00;;;;;;;0.63;0.63;;;;;;;21.13;33.33;100827.50;7395690;19;20021;-79
2023/10/15 08:29:26;;;;;;;3.85;2.03;;;;;;;21.74;32.79;100827.03;7392927;19;20014;-78
2023/10/15 08:31:53;;;;;;;1.98;1.77;;;;;;;21.66;32.68;100817.53;7392900;19;20014;-79
2023/10/15 08:34:19;;;;;;;0.70;0.70;;;;;;;20.63;33.71;100819.28;7392684;19;20007;-79
2023/10/15 08:36:45;;;;;;;0.75;0.75;;;;;;;20.23;34.53;100825.59;7372949;19;20014;-78
2023/10/15 08:39:11;;;;;;;0.80;0.80;;;;;;;20.42;34.26;100832.25;7391903;19;20487;-78
2023/10/15 08:41:43;;;;;;;6.65;1.88;;;;;;;20.51;34.66;100840.41;7392265;19;20026;-78
2023/10/15 08:44:18;;;;;;;0.65;0.63;;;;;;;20.67;34.54;100835.97;7393758;19;20010;-78
2023/10/15 08:46:48;;;;;;;0.75;0.75;;;;;;;20.10;34.97;100823.31;7392011;19;20516;-79
2023/10/15 08:49:15;;;;;;;0.28;0.28;;;;;;;19.63;36.10;100833.66;7391231;19;20570;-78
2023/10/15 08:51:43;;;;;;;0.95;0.95;;;;;;;19.48;36.25;100836.00;7389624;19;20038;-78
2023/10/15 08:54:12;;;;;;;0.40;0.40;;;;;;;20.43;35.50;100845.09;7391617;19;20032;-78
2023/10/15 08:56:40;;;;;;;4.18;1.23;;;;;;;20.41;35.67;100844.84;7391883;19;20406;-78
2023/10/15 08:59:09;;;;;;;0.40;0.40;;;;;;;20.18;35.93;100852.59;7392485;19;20007;-79
2023/10/15 09:01:42;;;;;;;0.63;0.57;;;;;;;19.48;36.77;100857.81;7390606;19;20026;-78
2023/10/15 09:04:09;;;;;;;0.45;0.45;;;;;;;19.98;36.45;100858.56;7392964;19;20033;-78
2023/10/15 09:06:36;;;;;;;0.60;0.60;;;;;;;20.44;35.88;100857.97;7391496;19;20011;-79
2023/10/15 09:09:03;;;;;;;0.30;0.30;;;;;;;21.03;35.22;100855.38;7390944;19;20014;-78
2023/10/15 09:11:29;;;;;;;0.35;0.35;;;;;;;21.42;35.24;100860.78;7391007;19;20018;-78
2023/10/15 09:13:58;;;;;;;0.55;0.55;;;;;;;21.72;35.05;100863.66;7390469;19;20014;-80
2023/10/15 09:16:26;;;;;;;0.85;0.85;;;;;;;22.96;33.76;100868.22;7390741;19;20015;-78
2023/10/15 09:18:52;;;;;;;0.30;0.30;;;;;;;22.98;33.28;100871.31;7391003;19;20019;-78
2023/10/15 09:21:23;;;;;;;3.28;0.63;;;;;;;23.15;33.75;100869.00;7391981;19;20070;-78
2023/10/15 09:23:50;;;;;;;;;;;;;;;23.09;33.57;100874.00;7392931;19;20013;-78
2023/10/15 09:26:17;;;;;;;0.88;0.57;;;;;;;23.25;33.36;100878.69;7389633;19;19911;-78
2023/10/15 09:28:46;;;;;;;0.30;0.30;;;;;;;22.69;34.51;100878.66;7390008;19;20366;-78
2023/10/15 09:31:12;;;;;;;0.30;0.30;;;;;;;22.72;34.11;100876.84;7390302;19;20074;-78
2023/10/15 09:33:39;;;;;;;1.15;1.05;;;;;;;22.85;34.34;100880.50;7389770;19;20006;-78
2023/10/15 09:36:06;;;;;;;0.40;0.40;;;;;;;22.81;34.52;100882.13;7391251;19;20074;-78
2023/10/15 09:38:34;;;;;;;0.35;0.35;;;;;;;22.56;34.53;100893.50;7390873;19;20003;-78
2023/10/15 09:41:01;;;;;;;3.80;2.15;;;;;;;23.06;34.28;100898.59;7391762;19;20011;-78
2023/10/15 09:43:31;;;;;;;0.95;0.85;;;;;;;22.97;34.28;100907.50;7388979;19;20638;-78
2023/10/15 09:46:01;;;;;;;0.25;0.25;;;;;;;22.80;34.49;100900.47;7392860;19;20070;-78
2023/10/15 09:48:27;;;;;;;0.40;0.40;;;;;;;23.25;34.46;100898.56;7389140;19;20014;-79
2023/10/15 09:50:57;;;;;;;0.40;0.40;;;;;;;23.31;33.98;100911.41;7389813;19;20007;-78
2023/10/15 09:53:24;;;;;;;0.40;0.40;;;;;;;22.98;34.71;100911.06;7388910;19;20022;-78
2023/10/15 09:55:51;;;;;;;0.38;0.38;;;;;;;22.69;34.94;100911.97;7391064;19;20031;-78
2023/10/15 09:58:20;;;;;;;0.50;0.50;;;;;;;22.79;34.85;100921.66;7390697;19;20010;-78
2023/10/15 10:01:08;;;;;;;0.60;0.60;;;;;;;22.55;35.58;100914.69;7389691;19;20499;-78
2023/10/15 10:03:37;;;;;;;0.30;0.30;;;;;;;22.61;35.26;100915.41;7389586;19;20018;-79
2023/10/15 10:06:09;;;;;;;0.50;0.50;;;;;;;22.81;35.08;100914.13;7389031;19;20007;-78
2023/10/15 10:09:24;;;;;;;0.38;0.38;;;;;;;22.96;35.22;100920.16;7387423;19;20485;-78
2023/10/15 10:12:13;;;;;;;0.40;0.40;;;;;;;24.34;33.65;100919.34;7388106;19;20038;-78
2023/10/15 10:14:58;;;;;;;0.30;0.30;;;;;;;25.01;33.22;100913.84;7390682;19;20476;-78
2023/10/15 10:17:27;;;;;;;0.30;0.30;;;;;;;25.63;32.76;100907.53;7389530;19;20034;-78
2023/10/15 10:19:54;;;;;;;0.60;0.60;;;;;;;24.23;34.02;100913.84;7389877;19;20014;-79
2023/10/15 10:22:25;;;;;;;0.75;0.75;;;;;;;23.73;34.56;100906.91;7385110;19;20003;-79
2023/10/15 10:24:53;;;;;;;0.30;0.30;;;;;;;23.50;34.87;100908.56;7390693;19;20010;-79
2023/10/15 10:27:21;;;;;;;1.05;1.05;;;;;;;23.53;34.68;100910.31;7387532;19;20094;-78
2023/10/15 10:29:53;;;;;;;0.25;0.25;;;;;;;23.74;34.89;100914.13;7389136;19;20046;-79
2023/10/15 10:32:22;;;;;;;0.30;0.30;;;;;;;24.23;34.03;100913.84;7388401;19;20014;-79
2023/10/15 10:35:18;;;;;;;0.50;0.50;;;;;;;24.16;34.36;100914.47;7390279;19;20015;-79
2023/10/15 10:38:07;;;;;;;0.20;0.20;;;;;;;24.44;33.82;100917.56;7389684;19;20013;-79
2023/10/15 10:40:48;;;;;;;0.20;0.20;;;;;;;24.44;33.55;100914.72;7386822;19;20363;-79
2023/10/15 10:43:19;;;;;;;0.35;0.35;;;;;;;24.24;33.70;100909.66;7388147;19;20058;-79
2023/10/15 10:45:57;;;;;;;0.28;0.28;;;;;;;24.48;33.71;100909.47;7392210;19;20006;-81
2023/10/15 10:48:25;;;;;;;0.43;0.43;;;;;;;24.17;34.09;100904.63;7387070;19;20010;-77
2023/10/15 10:51:13;;;;;;;0.60;0.60;;;;;;;24.06;33.91;100912.03;7390302;19;20015;-78
2023/10/15 10:53:59;;;;;;;0.20;0.20;;;;;;;23.68;34.87;100916.28;7389069;19;20002;-79
2023/10/15 10:56:40;;;;;;;1.10;0.52;;;;;;;23.55;35.05;100918.31;7387341;19;20572;-79
2023/10/15 10:59:13;;;;;;;0.38;0.38;;;;;;;24.18;34.43;100917.53;7389521;19;20011;-78
2023/10/15 11:01:45;;;;;;;0.30;0.30;;;;;;;23.75;34.96;100914.91;7389315;19;20021;-78
2023/10/15 11:04:15;;;;;;;0.30;0.30;;;;;;;24.33;34.35;100917.78;7389433;19;20062;-78
2023/10/15 11:06:45;;;;;;;0.30;0.30;;;;;;;24.07;34.69;100913.59;7385462;19;20003;-78
2023/10/15 11:09:22;;;;;;;0.30;0.30;;;;;;;24.02;34.49;100914.41;7389495;19;20023;-77
2023/10/15 11:11:49;;;;;;;0.40;0.35;;;;;;;23.75;34.99;100909.97;7385791;19;20010;-78
2023/10/15 11:14:17;;;;;;;0.35;0.35;;;;;;;24.13;34.82;100904.19;7388483;19;20018;-78
2023/10/15 11:16:43;;;;;;;0.40;0.40;;;;;;;24.06;34.88;100912.03;7389346;19;20018;-78
2023/10/15 11:19:17;;;;;;;0.57;0.55;;;;;;;23.66;35.46;100907.53;7389484;19;20003;-78
2023/10/15 11:21:44;;;;;;;0.40;0.40;;;;;;;24.75;34.64;100897.53;7388696;19;20010;-78
2023/10/15 11:24:11;;;;;;;0.43;0.43;;;;;;;25.13;34.40;100889.47;7386920;19;20018;-78
2023/10/15 11:26:41;;;;;;;0.15;0.15;;;;;;;25.08;34.21;100895.31;7386493;19;20507;-78
2023/10/15 11:29:12;;;;;;;0.52;0.40;;;;;;;25.34;33.89;100895.22;7386682;19;20049;-78
2023/10/15 11:31:43;;;;;;;0.20;0.20;;;;;;;25.45;33.84;100900.69;7386268;19;20742;-77
2023/10/15 11:34:14;;;;;;;0.40;0.40;;;;;;;25.53;33.46;100890.88;7395995;19;20428;-77
2023/10/15 11:36:43;;;;;;;0.45;0.45;;;;;;;25.14;33.63;100891.03;7394767;19;20022;-77
2023/10/15 11:39:25;;;;;;;0.28;0.28;;;;;;;25.12;33.58;100890.78;7394963;19;20018;-76
2023/10/15 11:41:52;;;;;;;0.22;0.22;;;;;;;24.89;34.12;100894.66;7394834;19;20099;-77
2023/10/15 11:44:31;;;;;;;0.20;0.20;;;;;;;24.78;34.17;100884.28;7396042;19;20109;-77
2023/10/15 11:47:00;;;;;;;0.30;0.30;;;;;;;24.80;33.97;100879.56;7392953;19;20075;-77
2023/10/15 11:49:27;;;;;;;0.32;0.32;;;;;;;24.89;33.93;100872.66;7395017;19;20025;-78
2023/10/15 11:51:56;;;;;;;0.20;0.20;;;;;;;26.26;32.66;100879.19;7394279;19;20014;-75
2023/10/15 11:54:32;;;;;;;0.40;0.40;;;;;;;26.46;32.51;100865.41;7394532;19;20572;-77